Time;durP1;ratioP1;P1;durP2;ratioP2;P2;SDS_P1;SDS_P2;PMS_P1;PMS_P2;Temp;Humidity;BMP_temperature;BMP_pressure;BME280_temperature;BME280_humidity;BME280_pressure;Samples;Min_cycle;Max_cycle;Signal;HPM_P1;HPM_P2
2023/03/26 00:01:39;;;;;;;;;14.50;9.50;;;;;;;;118121;1183;25457;-62
2023/03/26 00:04:08;;;;;;;;;12.33;10.00;;;;;;;;118088;1182;25588;-63
2023/03/26 00:06:38;;;;;;;;;17.00;14.00;;;;;;;;118096;1178;26090;-63
2023/03/26 00:09:09;;;;;;;;;18.00;15.50;;;;;;;;117928;1180;25923;-64
2023/03/26 00:11:37;;;;;;;;;15.50;14.00;;;;;;;;117933;1189;25455;-64
2023/03/26 00:14:05;;;;;;;;;14.00;12.00;;;;;;;;117915;1177;25004;-63
2023/03/26 00:16:34;;;;;;;;;16.00;14.50;;;;;;;;117930;1190;25293;-63
2023/03/26 00:19:03;;;;;;;;;13.00;11.33;;;;;;;;117974;1179;25397;-63
2023/03/26 00:21:31;;;;;;;;;17.50;14.00;;;;;;;;118102;1177;25263;-63
2023/03/26 00:24:03;;;;;;;;;4.25;4.25;;;;;;;;118098;1177;25681;-63
2023/03/26 00:26:33;;;;;;;;;12.50;10.50;;;;;;;;118075;1178;24698;-61
2023/03/26 00:29:02;;;;;;;;;18.50;14.50;;;;;;;;118024;1177;24956;-61
2023/03/26 00:31:32;;;;;;;;;15.00;14.00;;;;;;;;117927;1179;24989;-61
2023/03/26 00:34:02;;;;;;;;;21.25;19.25;;;;;;;;117971;1177;24906;-61
2023/03/26 00:36:34;;;;;;;;;15.75;14.50;;;;;;;;117905;1190;25503;-62
2023/03/26 00:39:04;;;;;;;;;16.33;14.33;;;;;;;;117939;1178;25611;-64
2023/03/26 00:41:35;;;;;;;;;12.50;12.00;;;;;;;;117917;1188;25526;-64
2023/03/26 00:44:04;;;;;;;;;10.25;10.25;;;;;;;;118088;1176;25329;-64
2023/03/26 00:46:33;;;;;;;;;15.00;14.67;;;;;;;;117897;1179;25245;-64
2023/03/26 00:49:02;;;;;;;;;13.67;13.67;;;;;;;;117935;1177;25093;-61
2023/03/26 00:51:32;;;;;;;;;17.00;15.00;;;;;;;;117932;1180;25614;-61
2023/03/26 00:54:01;;;;;;;;;11.67;11.33;;;;;;;;117902;1180;25375;-61
2023/03/26 00:56:30;;;;;;;;;18.50;11.00;;;;;;;;118122;1178;24850;-61
2023/03/26 00:58:59;;;;;;;;;14.50;13.50;;;;;;;;118112;1177;24852;-61
2023/03/26 01:01:29;;;;;;;;;15.50;11.00;;;;;;;;118036;1184;25151;-61
2023/03/26 01:04:18;;;;;;;;;14.33;14.33;;;;;;;;117899;1177;25273;-61
2023/03/26 01:06:46;;;;;;;;;16.00;15.00;;;;;;;;117946;1177;25620;-61
2023/03/26 01:09:17;;;;;;;;;4.50;4.00;;;;;;;;118027;1177;25131;-63
2023/03/26 01:11:47;;;;;;;;;15.00;15.00;;;;;;;;117961;1179;26044;-63
2023/03/26 01:14:18;;;;;;;;;11.00;11.00;;;;;;;;117984;1179;25488;-63
2023/03/26 01:16:57;;;;;;;;;15.50;15.00;;;;;;;;117919;1180;24699;-63
2023/03/26 01:19:36;;;;;;;;;16.33;13.00;;;;;;;;117968;1181;25058;-63
2023/03/26 01:22:10;;;;;;;;;11.25;11.00;;;;;;;;118115;1177;24803;-62
2023/03/26 01:24:40;;;;;;;;;14.75;13.25;;;;;;;;118102;1177;24907;-62
2023/03/26 01:27:34;;;;;;;;;11.50;11.25;;;;;;;;117971;1183;25511;-62
2023/03/26 01:30:17;;;;;;;;;14.50;12.00;;;;;;;;117981;1179;24782;-61
2023/03/26 01:32:48;;;;;;;;;16.25;15.75;;;;;;;;117909;1190;24679;-62
2023/03/26 01:35:35;;;;;;;;;13.33;13.00;;;;;;;;117924;1177;25310;-61
2023/03/26 01:38:17;;;;;;;;;7.00;7.00;;;;;;;;118157;1177;25318;-62
2023/03/26 01:41:08;;;;;;;;;15.00;11.00;;;;;;;;118139;1176;25307;-63
2023/03/26 01:43:51;;;;;;;;;16.00;13.75;;;;;;;;118129;1177;25506;-63
2023/03/26 01:46:21;;;;;;;;;17.00;14.50;;;;;;;;117937;1177;25468;-62
2023/03/26 01:48:50;;;;;;;;;15.00;14.00;;;;;;;;117967;1190;25309;-62
2023/03/26 01:51:31;;;;;;;;;15.00;13.00;;;;;;;;117964;1190;25200;-62
2023/03/26 01:54:05;;;;;;;;;12.75;10.25;;;;;;;;117926;1186;25604;-62
2023/03/26 01:56:46;;;;;;;;;14.75;14.25;;;;;;;;117931;1190;25293;-62
2023/03/26 01:59:56;;;;;;;;;14.25;13.00;;;;;;;;117974;1177;25613;-63
2023/03/26 02:02:34;;;;;;;;;14.25;14.25;;;;;;;;118124;1177;25216;-62
2023/03/26 02:05:09;;;;;;;;;11.00;11.00;;;;;;;;118165;1177;25196;-62
2023/03/26 02:07:46;;;;;;;;;14.75;13.50;;;;;;;;118056;1177;24905;-62
2023/03/26 02:10:36;;;;;;;;;14.00;12.00;;;;;;;;117942;1188;24957;-63
2023/03/26 02:13:05;;;;;;;;;15.00;13.25;;;;;;;;117972;1180;26145;-62
2023/03/26 02:15:33;;;;;;;;;18.25;13.50;;;;;;;;118143;1177;25534;-62
2023/03/26 02:18:02;;;;;;;;;18.50;16.75;;;;;;;;118115;1178;24834;-63
2023/03/26 02:20:32;;;;;;;;;15.25;13.75;;;;;;;;117903;1189;25227;-63
2023/03/26 02:23:01;;;;;;;;;15.50;14.00;;;;;;;;117937;1182;25214;-63
2023/03/26 02:25:29;;;;;;;;;14.00;12.25;;;;;;;;117823;1190;25054;-62
2023/03/26 02:27:58;;;;;;;;;10.67;10.67;;;;;;;;118064;1177;24863;-62
2023/03/26 02:30:28;;;;;;;;;14.50;14.50;;;;;;;;118096;1177;24805;-63
2023/03/26 02:32:57;;;;;;;;;17.00;13.25;;;;;;;;118047;1184;25467;-63
2023/03/26 02:35:26;;;;;;;;;16.00;13.67;;;;;;;;118091;1190;25604;-63
2023/03/26 02:37:55;;;;;;;;;19.00;14.67;;;;;;;;118007;1190;25282;-63
2023/03/26 02:40:24;;;;;;;;;15.25;12.50;;;;;;;;118095;1177;25491;-65
2023/03/26 02:42:52;;;;;;;;;20.75;15.00;;;;;;;;118153;1190;25679;-67
2023/03/26 02:45:21;;;;;;;;;14.67;13.33;;;;;;;;118135;1177;25475;-71
2023/03/26 02:47:49;;;;;;;;;14.25;10.75;;;;;;;;117993;1179;25331;-65
2023/03/26 02:50:18;;;;;;;;;14.00;11.00;;;;;;;;118155;1177;25142;-64
2023/03/26 02:52:48;;;;;;;;;18.00;14.50;;;;;;;;118129;1190;24840;-63
2023/03/26 02:55:17;;;;;;;;;17.00;12.25;;;;;;;;117947;1177;25581;-63
2023/03/26 02:57:45;;;;;;;;;15.00;13.67;;;;;;;;117935;1177;25598;-64
2023/03/26 03:00:15;;;;;;;;;9.67;8.33;;;;;;;;117946;1177;24794;-64
2023/03/26 03:02:46;;;;;;;;;12.75;12.75;;;;;;;;118092;1177;24760;-64
2023/03/26 03:05:17;;;;;;;;;20.33;15.33;;;;;;;;117934;1179;24835;-64
2023/03/26 03:07:45;;;;;;;;;17.75;13.25;;;;;;;;118072;1190;25030;-64
2023/03/26 03:10:14;;;;;;;;;14.75;13.50;;;;;;;;118158;1177;25352;-64
2023/03/26 03:12:42;;;;;;;;;15.00;11.75;;;;;;;;117988;1190;25374;-64
2023/03/26 03:15:11;;;;;;;;;17.00;15.00;;;;;;;;117940;1187;25476;-64
2023/03/26 03:17:40;;;;;;;;;16.50;12.75;;;;;;;;118121;1185;25390;-64
2023/03/26 03:20:10;;;;;;;;;13.50;12.50;;;;;;;;117964;1190;25253;-64
2023/03/26 03:22:39;;;;;;;;;16.00;13.00;;;;;;;;118002;1183;25632;-63
2023/03/26 03:25:13;;;;;;;;;13.00;13.00;;;;;;;;117994;1177;25537;-64
2023/03/26 03:27:41;;;;;;;;;13.50;11.75;;;;;;;;117900;1186;24722;-61
2023/03/26 03:30:12;;;;;;;;;12.33;12.33;;;;;;;;117857;1178;25056;-63
2023/03/26 03:32:40;;;;;;;;;19.50;14.50;;;;;;;;117818;1184;25467;-61
2023/03/26 03:35:09;;;;;;;;;17.00;16.00;;;;;;;;117919;1179;25064;-61
2023/03/26 03:37:37;;;;;;;;;17.75;13.00;;;;;;;;117927;1177;25648;-62
2023/03/26 03:40:09;;;;;;;;;15.67;15.00;;;;;;;;118085;1190;25694;-62
2023/03/26 03:42:38;;;;;;;;;16.50;14.00;;;;;;;;117999;1177;24811;-63
2023/03/26 03:45:07;;;;;;;;;19.67;17.00;;;;;;;;118154;1176;24835;-62
2023/03/26 03:47:35;;;;;;;;;27.33;20.00;;;;;;;;118170;1190;24935;-61
2023/03/26 03:50:05;;;;;;;;;21.67;17.00;;;;;;;;117812;1180;24982;-61
2023/03/26 03:52:33;;;;;;;;;24.00;17.00;;;;;;;;117855;1190;25285;-63
2023/03/26 03:55:02;;;;;;;;;17.00;15.50;;;;;;;;117913;1190;24967;-65
2023/03/26 03:57:32;;;;;;;;;16.50;15.50;;;;;;;;117936;1177;25437;-62
2023/03/26 04:00:01;;;;;;;;;29.75;18.00;;;;;;;;117935;1178;25513;-62
2023/03/26 04:02:33;;;;;;;;;20.00;17.67;;;;;;;;118130;1183;25373;-61
2023/03/26 04:05:04;;;;;;;;;24.00;14.75;;;;;;;;118012;1190;25217;-61
2023/03/26 04:07:32;;;;;;;;;21.67;14.00;;;;;;;;118016;1186;25062;-63
2023/03/26 04:10:04;;;;;;;;;22.00;16.00;;;;;;;;118112;1189;25396;-62
2023/03/26 04:12:32;;;;;;;;;18.33;14.00;;;;;;;;118125;1177;25496;-64
2023/03/26 04:15:01;;;;;;;;;20.25;14.25;;;;;;;;117777;1179;25265;-60
2023/03/26 04:17:29;;;;;;;;;21.25;16.50;;;;;;;;117918;1181;25197;-62
2023/03/26 04:20:09;;;;;;;;;23.00;16.25;;;;;;;;118061;1184;25208;-62
2023/03/26 04:22:39;;;;;;;;;20.00;18.00;;;;;;;;118091;1177;25332;-63
2023/03/26 04:25:09;;;;;;;;;24.75;19.50;;;;;;;;118103;1177;24933;-62
2023/03/26 04:27:40;;;;;;;;;19.75;16.25;;;;;;;;117805;1181;25481;-63
2023/03/26 04:30:14;;;;;;;;;18.25;16.25;;;;;;;;117874;1183;25741;-63
2023/03/26 04:32:44;;;;;;;;;15.67;14.33;;;;;;;;117914;1183;25179;-63
2023/03/26 04:35:15;;;;;;;;;15.00;14.75;;;;;;;;117880;1178;25591;-63
2023/03/26 04:37:44;;;;;;;;;18.00;16.00;;;;;;;;117899;1179;24988;-62
2023/03/26 04:40:16;;;;;;;;;17.67;15.33;;;;;;;;117980;1190;25761;-62
2023/03/26 04:42:44;;;;;;;;;17.50;14.50;;;;;;;;117951;1190;25261;-62
2023/03/26 04:45:16;;;;;;;;;15.33;15.00;;;;;;;;117979;1181;25550;-63
2023/03/26 04:47:45;;;;;;;;;23.00;18.00;;;;;;;;117987;1177;24985;-63
2023/03/26 04:50:14;;;;;;;;;17.00;12.25;;;;;;;;117927;1178;25665;-64
2023/03/26 04:52:42;;;;;;;;;20.00;15.50;;;;;;;;117836;1180;25397;-62
2023/03/26 04:55:41;;;;;;;;;17.00;15.67;;;;;;;;117884;1187;25095;-63
2023/03/26 04:58:12;;;;;;;;;16.25;11.00;;;;;;;;118088;1190;25497;-63
2023/03/26 05:00:41;;;;;;;;;20.00;15.00;;;;;;;;117964;1177;26460;-64
2023/03/26 05:03:11;;;;;;;;;10.50;5.00;;;;;;;;117981;1190;25638;-64
2023/03/26 05:05:39;;;;;;;;;17.00;15.00;;;;;;;;117849;1190;25117;-64
2023/03/26 05:08:08;;;;;;;;;17.00;14.00;;;;;;;;117884;1177;25348;-62
2023/03/26 05:10:37;;;;;;;;;15.50;15.50;;;;;;;;117877;1180;25132;-64
2023/03/26 05:13:05;;;;;;;;;17.50;15.00;;;;;;;;117967;1177;25586;-63
2023/03/26 05:15:34;;;;;;;;;17.00;14.00;;;;;;;;117977;1178;25385;-63
2023/03/26 05:18:03;;;;;;;;;20.00;13.33;;;;;;;;117916;1184;25043;-63
2023/03/26 05:20:31;;;;;;;;;16.75;16.75;;;;;;;;117860;1177;25545;-63
2023/03/26 05:23:00;;;;;;;;;19.50;16.25;;;;;;;;117902;1177;24802;-63
2023/03/26 05:25:29;;;;;;;;;19.75;15.00;;;;;;;;117979;1177;25053;-62
2023/03/26 05:27:57;;;;;;;;;15.50;13.00;;;;;;;;118143;1178;25681;-62
2023/03/26 05:30:26;;;;;;;;;19.33;15.67;;;;;;;;117964;1183;25551;-65
2023/03/26 05:32:55;;;;;;;;;16.50;13.50;;;;;;;;118143;1190;25075;-63
2023/03/26 05:35:24;;;;;;;;;21.00;15.67;;;;;;;;118075;1177;25172;-63
2023/03/26 05:37:52;;;;;;;;;18.00;15.00;;;;;;;;117998;1177;25417;-63
2023/03/26 05:40:21;;;;;;;;;17.33;16.00;;;;;;;;118117;1177;25251;-66
2023/03/26 05:42:50;;;;;;;;;10.00;10.00;;;;;;;;117899;1179;25171;-65
2023/03/26 05:45:18;;;;;;;;;15.00;12.00;;;;;;;;118107;1176;25860;-65
2023/03/26 05:47:48;;;;;;;;;15.00;12.00;;;;;;;;117977;1178;25632;-64
2023/03/26 05:50:17;;;;;;;;;17.75;13.75;;;;;;;;118131;1177;25356;-65
2023/03/26 05:52:45;;;;;;;;;24.50;17.50;;;;;;;;118066;1177;24843;-65
2023/03/26 05:55:14;;;;;;;;;14.50;12.25;;;;;;;;117904;1177;25511;-67
2023/03/26 05:57:43;;;;;;;;;14.00;11.00;;;;;;;;117865;1177;24904;-66
2023/03/26 06:00:12;;;;;;;;;13.75;10.00;;;;;;;;117858;1190;24981;-66
2023/03/26 06:02:41;;;;;;;;;16.75;11.75;;;;;;;;117911;1177;25239;-65
2023/03/26 06:05:11;;;;;;;;;15.33;12.67;;;;;;;;118091;1190;25462;-65
2023/03/26 06:07:39;;;;;;;;;20.00;13.67;;;;;;;;117990;1179;25590;-65
2023/03/26 06:10:08;;;;;;;;;13.00;12.33;;;;;;;;117879;1191;25602;-66
2023/03/26 06:12:37;;;;;;;;;19.00;13.50;;;;;;;;117873;1177;25725;-66
2023/03/26 06:15:07;;;;;;;;;17.33;14.00;;;;;;;;117997;1181;25580;-65
2023/03/26 06:17:35;;;;;;;;;19.00;14.75;;;;;;;;117960;1190;25478;-64
2023/03/26 06:20:06;;;;;;;;;13.00;12.33;;;;;;;;117936;1178;25549;-65
2023/03/26 06:22:36;;;;;;;;;19.67;14.00;;;;;;;;118116;1189;25164;-65
2023/03/26 06:25:05;;;;;;;;;4.50;4.50;;;;;;;;118013;1186;24980;-69
2023/03/26 06:27:34;;;;;;;;;13.67;12.33;;;;;;;;117927;1190;24852;-65
2023/03/26 06:30:02;;;;;;;;;18.25;15.00;;;;;;;;117910;1177;24797;-65
2023/03/26 06:32:31;;;;;;;;;16.50;13.00;;;;;;;;117951;1183;25207;-65
2023/03/26 06:34:59;;;;;;;;;14.00;12.00;;;;;;;;117884;1178;25087;-64
2023/03/26 06:37:28;;;;;;;;;17.25;14.75;;;;;;;;117865;1188;24865;-64
2023/03/26 06:39:56;;;;;;;;;15.75;12.50;;;;;;;;117997;1177;25594;-67
2023/03/26 06:42:25;;;;;;;;;13.00;11.67;;;;;;;;117958;1177;25269;-63
2023/03/26 06:45:14;;;;;;;;;14.50;12.00;;;;;;;;118085;1177;25933;-63
2023/03/26 06:47:42;;;;;;;;;15.00;13.50;;;;;;;;118104;1185;24726;-64
2023/03/26 06:50:11;;;;;;;;;14.00;10.33;;;;;;;;117941;1178;26057;-64
2023/03/26 06:52:39;;;;;;;;;19.25;14.00;;;;;;;;118046;1184;25432;-64
2023/03/26 06:55:09;;;;;;;;;18.25;12.25;;;;;;;;118065;1177;25566;-64
2023/03/26 06:57:37;;;;;;;;;16.00;14.50;;;;;;;;117967;1184;24923;-64
2023/03/26 07:00:07;;;;;;;;;14.00;14.00;;;;;;;;118074;1177;25482;-65
2023/03/26 07:02:35;;;;;;;;;12.75;9.50;;;;;;;;118076;1190;25371;-64
2023/03/26 07:05:05;;;;;;;;;17.67;14.67;;;;;;;;118124;1177;25632;-65
2023/03/26 07:07:33;;;;;;;;;14.25;11.25;;;;;;;;118106;1177;25219;-64
2023/03/26 07:10:13;;;;;;;;;15.25;13.00;;;;;;;;118011;1177;24867;-66
2023/03/26 07:12:41;;;;;;;;;14.50;13.50;;;;;;;;118072;1177;24715;-64
2023/03/26 07:15:10;;;;;;;;;13.75;11.75;;;;;;;;118061;1190;25101;-70
2023/03/26 07:17:38;;;;;;;;;15.50;13.25;;;;;;;;117908;1177;25387;-71
2023/03/26 07:20:08;;;;;;;;;14.50;10.50;;;;;;;;118019;1177;25632;-66
2023/03/26 07:22:37;;;;;;;;;11.25;10.75;;;;;;;;117915;1177;25734;-67
2023/03/26 07:25:06;;;;;;;;;12.25;10.50;;;;;;;;117916;1179;25670;-65
2023/03/26 07:27:46;;;;;;;;;15.00;12.00;;;;;;;;118085;1186;25539;-64
2023/03/26 07:30:19;;;;;;;;;12.33;11.00;;;;;;;;118149;1180;25080;-65
2023/03/26 07:33:13;;;;;;;;;15.00;11.00;;;;;;;;118117;1186;24707;-63
2023/03/26 07:35:48;;;;;;;;;13.25;11.75;;;;;;;;117939;1190;25378;-64
2023/03/26 07:38:46;;;;;;;;;12.33;10.67;;;;;;;;118076;1177;25442;-64
2023/03/26 07:41:36;;;;;;;;;13.33;12.67;;;;;;;;117872;1179;25373;-64
2023/03/26 07:44:13;;;;;;;;;12.67;12.00;;;;;;;;117960;1190;25761;-63
2023/03/26 07:46:42;;;;;;;;;15.50;12.75;;;;;;;;117989;1178;25157;-63
2023/03/26 07:49:12;;;;;;;;;13.00;13.00;;;;;;;;118014;1184;24724;-63
2023/03/26 07:51:41;;;;;;;;;11.67;11.67;;;;;;;;118063;1177;25157;-64
2023/03/26 07:54:10;;;;;;;;;11.67;9.00;;;;;;;;118109;1177;24842;-65
2023/03/26 07:56:50;;;;;;;;;13.33;12.00;;;;;;;;118146;1190;24858;-64
2023/03/26 07:59:30;;;;;;;;;12.25;11.75;;;;;;;;117951;1179;25151;-71
2023/03/26 08:02:29;;;;;;;;;13.50;12.25;;;;;;;;117851;1179;25297;-65
2023/03/26 08:05:03;;;;;;;;;9.00;8.00;;;;;;;;118001;1177;25131;-66
2023/03/26 08:07:34;;;;;;;;;10.33;10.00;;;;;;;;117959;1177;24683;-66
2023/03/26 08:10:09;;;;;;;;;13.00;10.33;;;;;;;;118007;1177;24838;-63
2023/03/26 08:13:11;;;;;;;;;13.50;10.50;;;;;;;;117985;1177;26035;-64
2023/03/26 08:15:56;;;;;;;;;14.67;9.67;;;;;;;;118005;1177;25030;-64
2023/03/26 08:18:49;;;;;;;;;15.50;12.00;;;;;;;;118131;1176;25519;-64
2023/03/26 08:21:20;;;;;;;;;12.00;11.00;;;;;;;;117939;1177;25332;-64
2023/03/26 08:23:59;;;;;;;;;14.50;9.00;;;;;;;;118072;1177;25202;-65
2023/03/26 08:26:50;;;;;;;;;12.50;11.00;;;;;;;;117979;1177;25593;-65
2023/03/26 08:29:31;;;;;;;;;14.00;11.33;;;;;;;;118055;1187;24819;-64
2023/03/26 08:32:01;;;;;;;;;11.00;10.00;;;;;;;;118105;1190;24803;-64
2023/03/26 08:34:29;;;;;;;;;11.33;11.33;;;;;;;;117949;1184;24839;-65
2023/03/26 08:36:57;;;;;;;;;9.00;7.00;;;;;;;;118014;1177;24927;-65
2023/03/26 08:39:26;;;;;;;;;11.33;10.67;;;;;;;;118114;1177;25175;-65
2023/03/26 08:42:00;;;;;;;;;10.50;9.00;;;;;;;;117825;1179;25001;-64
2023/03/26 08:44:53;;;;;;;;;10.00;10.00;;;;;;;;117860;1184;24895;-66
2023/03/26 08:47:39;;;;;;;;;15.00;11.00;;;;;;;;117967;1177;26053;-63
2023/03/26 08:50:32;;;;;;;;;15.67;11.00;;;;;;;;118088;1190;24943;-63
2023/03/26 08:53:12;;;;;;;;;14.00;9.33;;;;;;;;118137;1190;25986;-63
2023/03/26 08:55:47;;;;;;;;;10.25;7.50;;;;;;;;117977;1178;25483;-64
2023/03/26 08:58:53;;;;;;;;;11.75;11.75;;;;;;;;117959;1177;25556;-64
2023/03/26 09:02:16;;;;;;;;;10.00;9.50;;;;;;;;117637;1190;24882;-63
2023/03/26 09:05:00;;;;;;;;;8.00;8.00;;;;;;;;117443;1182;25642;-64
2023/03/26 09:07:40;;;;;;;;;7.33;7.00;;;;;;;;117381;1193;24784;-64
2023/03/26 09:10:33;;;;;;;;;8.00;8.00;;;;;;;;117712;1177;25140;-64
2023/03/26 09:13:23;;;;;;;;;13.00;11.00;;;;;;;;118090;1190;24782;-64
2023/03/26 09:15:57;;;;;;;;;8.25;7.00;;;;;;;;118017;1177;24748;-65
2023/03/26 09:18:40;;;;;;;;;11.75;10.25;;;;;;;;117970;1177;25330;-64
2023/03/26 09:21:26;;;;;;;;;15.50;9.00;;;;;;;;118095;1186;24699;-64
2023/03/26 09:24:21;;;;;;;;;15.00;11.00;;;;;;;;117991;1177;24958;-65
2023/03/26 09:27:05;;;;;;;;;9.00;8.33;;;;;;;;117965;1180;25751;-65
2023/03/26 09:29:47;;;;;;;;;11.00;9.67;;;;;;;;117976;1178;25239;-63
2023/03/26 09:32:28;;;;;;;;;8.00;6.00;;;;;;;;117911;1177;25564;-63
2023/03/26 09:35:15;;;;;;;;;10.00;8.75;;;;;;;;117924;1183;25134;-63
2023/03/26 09:37:56;;;;;;;;;12.75;9.50;;;;;;;;117910;1177;25004;-62
2023/03/26 09:40:33;;;;;;;;;10.00;9.00;;;;;;;;118086;1177;24838;-62
2023/03/26 09:43:35;;;;;;;;;14.25;9.25;;;;;;;;117925;1178;24935;-64
2023/03/26 09:46:11;;;;;;;;;6.50;5.00;;;;;;;;117997;1177;24835;-65
2023/03/26 09:48:44;;;;;;;;;12.00;9.75;;;;;;;;118055;1177;24909;-64
2023/03/26 09:51:50;;;;;;;;;11.00;8.75;;;;;;;;118110;1177;25494;-61
2023/03/26 09:54:43;;;;;;;;;15.25;11.00;;;;;;;;117954;1177;25030;-61
2023/03/26 09:57:17;;;;;;;;;14.00;12.25;;;;;;;;117933;1178;24749;-61
2023/03/26 10:00:09;;;;;;;;;12.67;11.00;;;;;;;;117909;1177;25487;-61
2023/03/26 10:02:57;;;;;;;;;19.00;14.67;;;;;;;;117989;1186;25428;-60
2023/03/26 10:05:54;;;;;;;;;11.50;10.50;;;;;;;;118094;1179;25433;-60
2023/03/26 10:08:26;;;;;;;;;10.50;9.50;;;;;;;;118082;1184;25352;-60
2023/03/26 10:11:45;;;;;;;;;11.50;9.00;;;;;;;;118140;1190;25430;-61
2023/03/26 10:14:22;;;;;;;;;7.00;6.00;;;;;;;;117978;1177;25172;-61
2023/03/26 10:17:03;;;;;;;;;10.75;8.75;;;;;;;;118003;1177;24801;-61
2023/03/26 10:19:47;;;;;;;;;13.00;9.33;;;;;;;;118101;1185;25391;-61
2023/03/26 10:22:18;;;;;;;;;7.50;7.50;;;;;;;;118013;1177;25619;-60
2023/03/26 10:25:14;;;;;;;;;8.67;6.67;;;;;;;;117996;1190;25194;-61
2023/03/26 10:27:51;;;;;;;;;7.75;5.75;;;;;;;;118028;1177;25794;-61
2023/03/26 10:30:22;;;;;;;;;3.00;3.00;;;;;;;;118032;1177;24769;-61
2023/03/26 10:33:09;;;;;;;;;6.67;6.67;;;;;;;;117992;1190;25526;-61
2023/03/26 10:35:44;;;;;;;;;5.75;5.25;;;;;;;;117991;1187;24836;-60
2023/03/26 10:38:17;;;;;;;;;5.67;5.67;;;;;;;;118031;1184;25009;-61
2023/03/26 10:41:03;;;;;;;;;5.67;5.00;;;;;;;;117934;1186;25549;-60
2023/03/26 10:43:46;;;;;;;;;5.50;4.00;;;;;;;;118050;1182;24846;-60
2023/03/26 10:47:07;;;;;;;;;6.25;5.00;;;;;;;;117975;1178;25388;-60
2023/03/26 10:49:47;;;;;;;;;3.00;3.00;;;;;;;;117761;1177;24943;-60
2023/03/26 10:52:34;;;;;;;;;5.75;4.75;;;;;;;;118012;1178;25678;-60
2023/03/26 10:55:13;;;;;;;;;4.67;4.00;;;;;;;;117922;1178;24960;-58
2023/03/26 10:57:50;;;;;;;;;4.75;3.00;;;;;;;;117952;1178;25583;-58
2023/03/26 11:00:24;;;;;;;;;5.00;3.33;;;;;;;;117978;1184;24878;-58
2023/03/26 11:06:31;;;;;;;;;6.00;4.00;;;;;;;;118456;1179;24990;-60
2023/03/26 11:13:21;;;;;;;;;8.00;5.00;;;;;;;;113578;1179;3010418;-60
2023/03/26 11:15:49;;;;;;;;;5.00;5.00;;;;;;;;117806;1180;25583;-59
2023/03/26 11:18:27;;;;;;;;;3.00;3.00;;;;;;;;117839;1180;26371;-59
2023/03/26 11:21:08;;;;;;;;;5.00;5.00;;;;;;;;117804;1193;24918;-59
2023/03/26 11:23:59;;;;;;;;;3.67;3.67;;;;;;;;117780;1183;25442;-59
2023/03/26 11:26:54;;;;;;;;;4.67;4.00;;;;;;;;117781;1180;24960;-59
2023/03/26 11:29:50;;;;;;;;;4.75;4.00;;;;;;;;117770;1193;25512;-59
2023/03/26 11:32:30;;;;;;;;;4.67;3.00;;;;;;;;117793;1180;26405;-59
2023/03/26 11:35:04;;;;;;;;;3.50;2.00;;;;;;;;117769;1193;25351;-60
2023/03/26 11:37:49;;;;;;;;;3.00;3.00;;;;;;;;117783;1193;25038;-59
2023/03/26 11:40:23;;;;;;;;;2.00;2.00;;;;;;;;117832;1193;25654;-58
2023/03/26 11:42:57;;;;;;;;;4.00;2.00;;;;;;;;117472;1193;25342;-58
2023/03/26 11:45:29;;;;;;;;;4.25;3.75;;;;;;;;117494;1193;25214;-59
2023/03/26 11:48:15;;;;;;;;;5.00;4.00;;;;;;;;117791;1184;24917;-60
2023/03/26 11:50:48;;;;;;;;;5.00;4.00;;;;;;;;117821;1193;25541;-59
2023/03/26 11:53:19;;;;;;;;;4.67;4.33;;;;;;;;117473;1180;25462;-60
2023/03/26 11:56:01;;;;;;;;;6.00;5.00;;;;;;;;117658;1186;25112;-64
2023/03/26 11:58:59;;;;;;;;;3.00;3.00;;;;;;;;117834;1187;24689;-62
2023/03/26 12:01:51;;;;;;;;;5.00;3.50;;;;;;;;117609;1180;25181;-60
2023/03/26 12:04:33;;;;;;;;;2.00;2.00;;;;;;;;117824;1193;25357;-59
2023/03/26 12:07:21;;;;;;;;;6.00;6.00;;;;;;;;117790;1180;25315;-60
2023/03/26 12:09:55;;;;;;;;;3.50;2.50;;;;;;;;117770;1181;25558;-61
2023/03/26 12:12:45;;;;;;;;;7.00;4.00;;;;;;;;117841;1182;25283;-60
2023/03/26 12:15:15;;;;;;;;;3.33;3.00;;;;;;;;117817;1192;24778;-65
2023/03/26 12:17:46;;;;;;;;;2.50;2.00;;;;;;;;117841;1181;24781;-62
2023/03/26 12:20:31;;;;;;;;;5.00;4.00;;;;;;;;117867;1184;24815;-61
2023/03/26 12:23:03;;;;;;;;;3.00;3.00;;;;;;;;117562;1180;25659;-61
2023/03/26 12:25:34;;;;;;;;;3.25;3.25;;;;;;;;117416;1180;24821;-61
2023/03/26 12:28:19;;;;;;;;;4.50;4.00;;;;;;;;117449;1193;24940;-58
2023/03/26 12:31:03;;;;;;;;;3.00;3.00;;;;;;;;117796;1180;25321;-58
2023/03/26 12:33:34;;;;;;;;;3.00;3.00;;;;;;;;117817;1187;24871;-59
2023/03/26 12:36:34;;;;;;;;;1.67;1.33;;;;;;;;117869;1191;25270;-60
2023/03/26 12:39:31;;;;;;;;;4.00;3.00;;;;;;;;117257;1190;25219;-60
2023/03/26 12:42:24;;;;;;;;;3.00;3.00;;;;;;;;117827;1187;24715;-59
2023/03/26 12:45:13;;;;;;;;;5.50;4.50;;;;;;;;117799;1181;25181;-58
2023/03/26 12:47:41;;;;;;;;;2.00;2.00;;;;;;;;117557;1193;25607;-59
2023/03/26 12:50:50;;;;;;;;;3.00;2.00;;;;;;;;117809;1180;25022;-58
2023/03/26 12:53:53;;;;;;;;;4.00;3.00;;;;;;;;117822;1181;25612;-59
2023/03/26 12:56:35;;;;;;;;;3.33;3.33;;;;;;;;117484;1184;24715;-59
2023/03/26 12:59:18;;;;;;;;;4.00;2.50;;;;;;;;117808;1180;25428;-58
2023/03/26 13:01:54;;;;;;;;;4.33;4.00;;;;;;;;117477;1186;25384;-59
2023/03/26 13:04:51;;;;;;;;;4.00;4.00;;;;;;;;117792;1189;24708;-59
2023/03/26 13:08:06;;;;;;;;;5.00;4.00;;;;;;;;117800;1192;25461;-58
2023/03/26 13:10:54;;;;;;;;;3.00;2.00;;;;;;;;117484;1190;25517;-59
2023/03/26 13:13:32;;;;;;;;;2.00;2.00;;;;;;;;117745;1180;25377;-59
2023/03/26 13:16:08;;;;;;;;;2.00;2.00;;;;;;;;117627;1180;25338;-58
2023/03/26 13:18:47;;;;;;;;;3.00;3.00;;;;;;;;117760;1181;25530;-59
2023/03/26 13:21:21;;;;;;;;;4.50;4.50;;;;;;;;117778;1193;25493;-58
2023/03/26 13:24:01;;;;;;;;;3.00;3.00;;;;;;;;117794;1191;25360;-59
2023/03/26 13:26:39;;;;;;;;;3.00;3.00;;;;;;;;117739;1180;25622;-58
2023/03/26 13:29:17;;;;;;;;;2.00;2.00;;;;;;;;117737;1182;25176;-58
2023/03/26 13:32:24;;;;;;;;;5.25;4.00;;;;;;;;117806;1186;25203;-58
2023/03/26 13:34:58;;;;;;;;;3.00;3.00;;;;;;;;117818;1180;24827;-58
2023/03/26 13:37:39;;;;;;;;;3.50;3.50;;;;;;;;117827;1180;25239;-59
2023/03/26 13:40:40;;;;;;;;;4.50;3.50;;;;;;;;117810;1193;24843;-59
2023/03/26 13:43:34;;;;;;;;;2.00;2.00;;;;;;;;117801;1193;25963;-59
2023/03/26 13:46:21;;;;;;;;;3.00;3.00;;;;;;;;117802;1181;25199;-58
2023/03/26 13:48:55;;;;;;;;;3.00;3.00;;;;;;;;117801;1186;25566;-58
2023/03/26 13:51:37;;;;;;;;;5.00;3.33;;;;;;;;117797;1180;25831;-59
2023/03/26 13:54:18;;;;;;;;;1.50;1.00;;;;;;;;117809;1180;25764;-58
2023/03/26 13:56:49;;;;;;;;;3.00;1.75;;;;;;;;117798;1193;25068;-58
2023/03/26 13:59:31;;;;;;;;;6.00;5.00;;;;;;;;117814;1193;25355;-57
2023/03/26 14:02:06;;;;;;;;;3.00;3.00;;;;;;;;117789;1180;25327;-57
2023/03/26 14:04:43;;;;;;;;;6.00;4.50;;;;;;;;117872;1193;25251;-58
2023/03/26 14:07:14;;;;;;;;;2.67;2.67;;;;;;;;117816;1193;25040;-57
2023/03/26 14:09:51;;;;;;;;;4.50;4.00;;;;;;;;117818;1181;24932;-58
2023/03/26 14:12:50;;;;;;;;;4.67;4.00;;;;;;;;117798;1180;25487;-58
2023/03/26 14:15:30;;;;;;;;;6.00;5.00;;;;;;;;117108;1186;25142;-60
2023/03/26 14:18:22;;;;;;;;;3.00;3.00;;;;;;;;117441;1181;25693;-58
2023/03/26 14:21:00;;;;;;;;;3.00;3.00;;;;;;;;117446;1180;25908;-59
2023/03/26 14:24:06;;;;;;;;;7.00;4.00;;;;;;;;117418;1182;24960;-58
2023/03/26 14:27:13;;;;;;;;;75.00;43.00;;;;;;;;117479;1180;25662;-57
2023/03/26 14:30:16;;;;;;;;;58.00;34.00;;;;;;;;117302;1190;25652;-57
2023/03/26 14:33:10;;;;;;;;;42.00;26.00;;;;;;;;117442;1186;25199;-57
2023/03/26 14:35:59;;;;;;;;;52.33;32.33;;;;;;;;117770;1181;25760;-57
2023/03/26 14:38:59;;;;;;;;;49.50;28.50;;;;;;;;117795;1192;25547;-56
2023/03/26 14:41:36;;;;;;;;;51.00;28.00;;;;;;;;117771;1193;25623;-58
2023/03/26 14:44:42;;;;;;;;;47.50;23.50;;;;;;;;117793;1193;25384;-58
2023/03/26 14:47:20;;;;;;;;;47.00;29.00;;;;;;;;117749;1181;25442;-58
2023/03/26 14:50:20;;;;;;;;;49.00;22.00;;;;;;;;117412;1181;24940;-58
2023/03/26 14:52:51;;;;;;;;;44.00;28.00;;;;;;;;117435;1186;24819;-57
2023/03/26 14:55:55;;;;;;;;;39.50;21.50;;;;;;;;117423;1187;24706;-57
2023/03/26 14:58:54;;;;;;;;;47.00;27.00;;;;;;;;117433;1193;24822;-58
2023/03/26 15:01:42;;;;;;;;;38.00;23.33;;;;;;;;117460;1180;25754;-58
2023/03/26 15:04:35;;;;;;;;;34.00;22.33;;;;;;;;117424;1186;25388;-58
2023/03/26 15:07:41;;;;;;;;;39.00;22.00;;;;;;;;117396;1186;25137;-59
2023/03/26 15:10:21;;;;;;;;;42.00;25.50;;;;;;;;117425;1187;24857;-58
2023/03/26 15:13:02;;;;;;;;;29.00;19.00;;;;;;;;117416;1181;25046;-57
2023/03/26 15:15:52;;;;;;;;;36.00;18.00;;;;;;;;117453;1193;25111;-59
2023/03/26 15:18:22;;;;;;;;;26.00;19.50;;;;;;;;117434;1181;25064;-58
2023/03/26 15:21:12;;;;;;;;;26.00;16.00;;;;;;;;117441;1180;25688;-59